Flight Track Log - Related Links

Times and Time Zones

All times are in EDT time to prevent confusion due to time zone crossing. See the N960DL flight status page for this flight to view local times or setup timezone preferences in your user account.

Time Position Orientation Groundspeed Altitude Reporting Facility
EDT Latitude Longitude Course Direction KTS MPH feet Rate Location/Type
Fri 10:56:00 AM 41.5324 -93.6626 168° South  Level FlightAware Approximate
Fri 10:57:00 AM 41.4225 -93.6225 143° Southeast  Level FlightAware Approximate
Fri 10:58:00 AM 41.3360 -93.5265 138° Southeast  Level FlightAware Approximate
Fri 10:59:00 AM 41.3196 -93.5069 138° Southeast  Level FlightAware Approximate
Fri 11:00:00 AM 41.3032 -93.4871 138° Southeast  Level FlightAware Approximate
Fri 11:01:00 AM 41.2960 -93.4619 138° Southeast  Level FlightAware Approximate
Fri 11:02:00 AM 41.2795 -93.4421 138° Southeast  Level FlightAware Approximate
Fri 11:03:00 AM 41.1965 -93.3407 136° Southeast  Level FlightAware Approximate
Fri 11:04:00 AM 41.1156 -93.2366 136° Southeast  Level FlightAware Approximate
Fri 11:05:00 AM 41.0339 -93.1336 137° Southeast  Level FlightAware Approximate
Fri 11:06:00 AM 40.9519 -93.0311 137° Southeast  Level FlightAware Approximate
Fri 11:07:00 AM 40.8699 -92.9288 137° Southeast  Level FlightAware Approximate
Fri 11:08:00 AM 40.7871 -92.8278 138° Southeast  Level FlightAware Approximate
Fri 11:09:00 AM 40.7708 -92.8083 138° Southeast  Level FlightAware Approximate
Fri 11:10:00 AM 40.7546 -92.7888 138° Southeast  Level FlightAware Approximate
Fri 11:11:00 AM 40.7395 -92.7676 131° Southeast  Level FlightAware Approximate
Fri 11:12:00 AM 40.7250 -92.7458 131° Southeast  Level FlightAware Approximate
Fri 11:13:00 AM 40.6492 -92.6377 135° Southeast  Level FlightAware Approximate
Fri 11:14:00 AM 40.5623 -92.5456 143° Southeast  Level FlightAware Approximate
Fri 11:15:00 AM 40.4835 -92.4417 134° Southeast  Level FlightAware Approximate
Fri 11:16:00 AM 40.4058 -92.3363 136° Southeast  Level FlightAware Approximate
Fri 11:17:00 AM 40.3224 -92.2390 143° Southeast  Level FlightAware Approximate
Fri 11:18:00 AM 40.2375 -92.1444 134° Southeast  Level FlightAware Approximate
Fri 11:19:00 AM 40.1568 -92.0433 137° Southeast  Level FlightAware Approximate
Fri 11:20:00 AM 40.0751 -91.9436 137° Southeast  Level FlightAware Approximate
Fri 11:21:00 AM 39.9973 -91.8392 137° Southeast  Level FlightAware Approximate
Fri 11:22:00 AM 39.9158 -91.7396 137° Southeast  Level FlightAware Approximate
Fri 11:23:00 AM 39.8345 -91.6397 137° Southeast  Level FlightAware Approximate
Fri 11:24:00 AM 39.7534 -91.5398 137° Southeast  Level FlightAware Approximate
Fri 11:25:00 AM 39.6722 -91.4401 137° Southeast  Level FlightAware Approximate
Fri 11:26:00 AM 39.5902 -91.3415 137° Southeast  Level FlightAware Approximate
Fri 11:27:00 AM 39.5082 -91.2432 137° Southeast  Level FlightAware Approximate
Fri 11:28:00 AM 39.4260 -91.1451 137° Southeast  Level FlightAware Approximate
Fri 11:29:00 AM 39.3438 -91.0473 137° Southeast  Level FlightAware Approximate
Fri 11:30:00 AM 39.2615 -90.9497 137° Southeast  Level FlightAware Approximate
Fri 11:31:00 AM 39.1791 -90.8523 137° Southeast  Level FlightAware Approximate
Fri 11:32:00 AM 39.0966 -90.7552 138° Southeast  Level FlightAware Approximate
Fri 11:33:00 AM 39.0140 -90.6583 138° Southeast  Level FlightAware Approximate
Fri 11:34:00 AM 38.9314 -90.5616 138° Southeast  Level FlightAware Approximate
Fri 11:35:00 AM 38.8488 -90.4650 132° Southeast  Level FlightAware Approximate
Fri 11:36:00 AM 38.7746 -90.3578 132° Southeast  Level FlightAware Approximate
Fri 11:37:00 AM 38.7003 -90.2509 132° Southeast  Level FlightAware Approximate
Fri 11:38:00 AM 38.6259 -90.1442 132° Southeast  Level FlightAware Approximate
Fri 11:39:00 AM 38.5519 -90.0371 131° Southeast  Level FlightAware Approximate
Fri 11:40:00 AM 38.4786 -89.9294 131° Southeast  Level FlightAware Approximate
Fri 11:41:00 AM 38.4051 -89.8220 131° Southeast  Level FlightAware Approximate
Fri 11:42:00 AM 38.3316 -89.7147 131° Southeast  Level FlightAware Approximate
Fri 11:43:00 AM 38.2579 -89.6077 131° Southeast  Level FlightAware Approximate
Fri 11:44:00 AM 38.1842 -89.5009 131° Southeast  Level FlightAware Approximate
Fri 11:45:00 AM 38.1104 -89.3943 131° Southeast  Level FlightAware Approximate
Fri 11:46:00 AM 38.0364 -89.2879 131° Southeast  Level FlightAware Approximate
Fri 11:47:00 AM 37.9624 -89.1817 131° Southeast  Level FlightAware Approximate
Fri 11:48:00 AM 37.8883 -89.0758 132° Southeast  Level FlightAware Approximate
Fri 11:49:00 AM 37.8141 -88.9700 132° Southeast  Level FlightAware Approximate
Fri 11:50:00 AM 37.7385 -88.8660 133° Southeast  Level FlightAware Approximate
Fri 11:51:00 AM 37.6626 -88.7624 133° Southeast  Level FlightAware Approximate
Fri 11:52:00 AM 37.5882 -88.6572 130° Southeast  Level FlightAware Approximate
Fri 11:53:00 AM 37.5141 -88.5518 132° Southeast  Level FlightAware Approximate
Fri 11:54:00 AM 37.4398 -88.4467 132° Southeast  Level FlightAware Approximate
Fri 11:55:00 AM 37.3653 -88.3418 132° Southeast  Level FlightAware Approximate
Fri 11:56:00 AM 37.2908 -88.2372 132° Southeast  Level FlightAware Approximate
Fri 11:57:00 AM 37.2158 -88.1331 132° Southeast  Level FlightAware Approximate
Fri 11:58:00 AM 37.1408 -88.0293 132° Southeast  Level FlightAware Approximate
Fri 11:59:00 AM 37.0655 -87.9258 133° Southeast  Level FlightAware Approximate
Fri 12:00:00 PM 36.9897 -87.8231 133° Southeast  Level FlightAware Approximate
Fri 12:01:00 PM 36.9138 -87.7205 133° Southeast  Level FlightAware Approximate
Fri 12:02:00 PM 36.8378 -87.6181 133° Southeast  Level FlightAware Approximate
Fri 12:03:00 PM 36.7617 -87.5160 133° Southeast  Level FlightAware Approximate
Fri 12:04:00 PM 36.6855 -87.4141 133° Southeast  Level FlightAware Approximate
Fri 12:05:00 PM 36.6093 -87.3123 133° Southeast  Level FlightAware Approximate
Fri 12:06:00 PM 36.5338 -87.2098 132° Southeast  Level FlightAware Approximate
Fri 12:07:00 PM 36.4583 -87.1073 132° Southeast  Level FlightAware Approximate
Fri 12:08:00 PM 36.3828 -87.0051 133° Southeast  Level FlightAware Approximate
Fri 12:09:00 PM 36.3057 -86.9047 134° Southeast  Level FlightAware Approximate
Fri 12:10:00 PM 36.2282 -86.8049 134° Southeast  Level FlightAware Approximate
Fri 12:11:00 PM 36.1506 -86.7054 134° Southeast  Level FlightAware Approximate
Fri 12:12:00 PM 36.0602 -86.6252 147° Southeast  Level FlightAware Approximate
Fri 12:13:00 PM 35.9662 -86.5506 147° Southeast  Level FlightAware Approximate
Fri 12:14:00 PM 35.8721 -86.4761 147° Southeast  Level FlightAware Approximate
Fri 12:15:00 PM 35.7780 -86.4019 147° Southeast  Level FlightAware Approximate
Fri 12:16:00 PM 35.6854 -86.3250 145° Southeast  Level FlightAware Approximate
Fri 12:17:00 PM 35.5941 -86.2458 145° Southeast  Level FlightAware Approximate
Fri 12:18:00 PM 35.5028 -86.1668 145° Southeast  Level FlightAware Approximate
Fri 12:19:00 PM 35.4060 -86.0994 148° Southeast  Level FlightAware Approximate
Fri 12:20:00 PM 35.3874 -86.0851 148° Southeast  Level FlightAware Approximate
Fri 12:21:00 PM 35.3687 -86.0707 148° Southeast  Level FlightAware Approximate
Fri 12:22:00 PM 35.3501 -86.0564 148° Southeast  Level FlightAware Approximate
Fri 12:23:00 PM 35.3315 -86.0420 148° Southeast  Level FlightAware Approximate
Fri 12:24:00 PM 35.3129 -86.0277 148° Southeast  Level FlightAware Approximate
Fri 12:25:00 PM 35.2942 -86.0134 148° Southeast  Level FlightAware Approximate
Fri 12:26:00 PM 35.2756 -85.9991 148° Southeast  Level FlightAware Approximate
Fri 12:27:00 PM 35.2569 -85.9848 148° Southeast  Level FlightAware Approximate
Fri 12:28:00 PM 35.2383 -85.9705 148° Southeast  Level FlightAware Approximate
Fri 12:29:00 PM 35.2198 -85.9558 147° Southeast  Level FlightAware Approximate
Fri 12:30:00 PM 35.2014 -85.9411 147° Southeast  Level FlightAware Approximate
Fri 12:31:00 PM 35.1830 -85.9264 147° Southeast  Level FlightAware Approximate
Fri 12:32:00 PM 35.1646 -85.9116 147° Southeast  Level FlightAware Approximate
Fri 12:33:00 PM 35.1462 -85.8969 147° Southeast  Level FlightAware Approximate
Fri 12:34:00 PM 35.1278 -85.8822 147° Southeast  Level FlightAware Approximate
Fri 12:35:00 PM 35.1094 -85.8674 147° Southeast  Level FlightAware Approximate
Fri 12:36:00 PM 35.0910 -85.8527 147° Southeast  Level FlightAware Approximate
Fri 12:37:00 PM 35.0726 -85.8380 147° Southeast  Level FlightAware Approximate
Fri 12:38:00 PM 35.0551 -85.8217 141° Southeast  Level FlightAware Approximate
Fri 12:39:00 PM 35.0381 -85.8047 141° Southeast  Level FlightAware Approximate
Fri 12:40:00 PM 35.0210 -85.7877 141° Southeast  Level FlightAware Approximate
Fri 12:41:00 PM 35.0040 -85.7707 141° Southeast  Level FlightAware Approximate
Fri 12:42:00 PM 34.9870 -85.7537 141° Southeast  Level FlightAware Approximate
Fri 12:43:00 PM 34.9688 -85.7387 147° Southeast  Level FlightAware Approximate
Fri 12:44:00 PM 34.9503 -85.7242 147° Southeast  Level FlightAware Approximate
Fri 12:45:00 PM 34.9317 -85.7098 147° Southeast  Level FlightAware Approximate
Fri 12:46:00 PM 34.9132 -85.6954 147° Southeast  Level FlightAware Approximate
Fri 12:47:00 PM 34.8946 -85.6809 147° Southeast  Level FlightAware Approximate
Fri 12:48:00 PM 34.8761 -85.6665 147° Southeast  Level FlightAware Approximate
Fri 12:49:00 PM 34.8574 -85.6520 147° Southeast  Level FlightAware Approximate
Fri 12:50:00 PM 34.8388 -85.6376 147° Southeast  Level FlightAware Approximate
Fri 12:51:00 PM 34.8202 -85.6228 147° Southeast  Level FlightAware Approximate
Fri 12:52:00 PM 34.8018 -85.6079 147° Southeast  Level FlightAware Approximate
Fri 12:53:00 PM 34.7833 -85.5931 147° Southeast  Level FlightAware Approximate
Fri 12:54:00 PM 34.7648 -85.5782 147° Southeast  Level FlightAware Approximate
Fri 12:55:00 PM 34.7464 -85.5634 147° Southeast  Level FlightAware Approximate
Fri 12:56:00 PM 34.7279 -85.5486 147° Southeast  Level FlightAware Approximate
Fri 12:57:00 PM 34.7094 -85.5338 147° Southeast  Level FlightAware Approximate
Fri 12:58:00 PM 34.6909 -85.5190 147° Southeast  Level FlightAware Approximate
Fri 12:59:00 PM 34.6725 -85.5042 147° Southeast  Level FlightAware Approximate
Fri 01:00:00 PM 34.6540 -85.4893 147° Southeast  Level FlightAware Approximate
Fri 01:01:00 PM 34.6355 -85.4746 147° Southeast  Level FlightAware Approximate
Fri 01:02:00 PM 34.6170 -85.4598 147° Southeast  Level FlightAware Approximate
Fri 01:03:00 PM 34.5985 -85.4450 147° Southeast  Level FlightAware Approximate
Fri 01:04:00 PM 34.5800 -85.4302 147° Southeast  Level FlightAware Approximate
Fri 01:05:00 PM 34.5616 -85.4155 147° Southeast  Level FlightAware Approximate
Fri 01:06:00 PM 34.5431 -85.4007 147° Southeast  Level FlightAware Approximate
Fri 01:07:00 PM 34.5246 -85.3859 147° Southeast  Level FlightAware Approximate
Fri 01:08:00 PM 34.5061 -85.3712 147° Southeast  Level FlightAware Approximate
Fri 01:09:00 PM 34.4876 -85.3565 147° Southeast  Level FlightAware Approximate
Fri 01:10:00 PM 34.4691 -85.3417 147° Southeast  Level FlightAware Approximate
Fri 01:11:00 PM 34.4506 -85.3270 147° Southeast  Level FlightAware Approximate
Fri 01:12:00 PM 34.4321 -85.3123 147° Southeast  Level FlightAware Approximate
Fri 01:13:00 PM 34.4135 -85.2977 148° Southeast  Level FlightAware Approximate
Fri 01:14:00 PM 34.3947 -85.2835 148° Southeast  Level FlightAware Approximate
Fri 01:15:00 PM 34.3759 -85.2694 148° Southeast  Level FlightAware Approximate
Fri 01:16:00 PM 34.3571 -85.2553 148° Southeast  Level FlightAware Approximate
Fri 01:17:00 PM 34.3376 -85.2426 154° Southeast  Level FlightAware Approximate
Fri 01:18:00 PM 34.3178 -85.2307 154° Southeast  Level FlightAware Approximate
Fri 01:19:00 PM 34.2980 -85.2188 154° Southeast  Level FlightAware Approximate
Fri 01:20:00 PM 34.2789 -85.2074 154° Southeast  Level FlightAware Approximate
Fri 01:21:00 PM 34.2602 -85.1953 149° Southeast  Level FlightAware Approximate
Fri 01:22:00 PM 34.2419 -85.1823 149° Southeast  Level FlightAware Approximate
Fri 01:23:00 PM 34.2235 -85.1692 149° Southeast  Level FlightAware Approximate
Fri 01:24:00 PM 34.2052 -85.1561 149° Southeast  Level FlightAware Approximate
Fri 01:25:00 PM 34.1869 -85.1430 149° Southeast  Level FlightAware Approximate
Fri 01:26:00 PM 34.1686 -85.1300 149° Southeast  Level FlightAware Approximate
Fri 01:27:00 PM 34.1503 -85.1169 149° Southeast  Level FlightAware Approximate
Fri 01:28:00 PM 34.1451 -85.0938 134° Southeast  Level FlightAware Approximate
Fri 01:29:00 PM 34.1303 -85.0753 134° Southeast  Level FlightAware Approximate
Fri 01:30:00 PM 34.1155 -85.0569 134° Southeast  Level FlightAware Approximate
Fri 01:31:00 PM 34.1007 -85.0384 134° Southeast  Level FlightAware Approximate
Fri 01:32:00 PM 34.0860 -85.0200 134° Southeast  Level FlightAware Approximate
Fri 01:33:00 PM 34.0718 -85.0008 131° Southeast  Level FlightAware Approximate
Fri 01:34:00 PM 34.0578 -84.9815 131° Southeast  Level FlightAware Approximate
Fri 01:35:00 PM 34.0438 -84.9622 131° Southeast  Level FlightAware Approximate
Fri 01:36:00 PM 34.0298 -84.9429 131° Southeast  Level FlightAware Approximate
Fri 01:37:00 PM 34.0158 -84.9236 131° Southeast  Level FlightAware Approximate
Fri 01:38:00 PM 34.0017 -84.9043 131° Southeast  Level FlightAware Approximate
Fri 01:39:00 PM 33.9877 -84.8851 131° Southeast  Level FlightAware Approximate
Fri 01:40:00 PM 33.9737 -84.8658 131° Southeast  Level FlightAware Approximate
Fri 01:41:00 PM 33.9596 -84.8465 131° Southeast  Level FlightAware Approximate
Fri 01:42:00 PM 33.9452 -84.8277 136° Southeast  Level FlightAware Approximate
Fri 01:43:00 PM 33.9299 -84.8099 136° Southeast  Level FlightAware Approximate
Fri 01:44:00 PM 33.9147 -84.7921 136° Southeast  Level FlightAware Approximate
Fri 01:45:00 PM 33.8994 -84.7742 136° Southeast  Level FlightAware Approximate
Fri 01:46:00 PM 33.8841 -84.7564 136° Southeast  Level FlightAware Approximate
Fri 01:47:00 PM 33.8688 -84.7386 136° Southeast  Level FlightAware Approximate
Fri 01:48:00 PM 33.8059 -84.6504 129° Southeast  Level FlightAware Approximate
Fri 01:49:00 PM 33.7442 -84.5608 140° Southeast  Level FlightAware Approximate
Fri 01:50:00 PM 33.6730 -84.4827 126° Southeast  Level FlightAware Approximate
Fri 01:51:00 PM 33.6367 -84.4279 North  Level Estimated
Fri 01:52:00 PM 33.6367 -84.4279 North  Level Estimated
Fri 01:53:00 PM 33.6367 -84.4279 North  Level Estimated
Fri 01:54:00 PM 33.6367 -84.4279 North  Level Estimated
Fri 01:55:00 PM 33.6367 -84.4279 North  Level Estimated
Fri 01:56:00 PM 33.6367 -84.4279 North  Level Estimated
Fri 01:57:00 PM 33.6367 -84.4279 North  Level Estimated
Fri 01:58:00 PM 33.6367 -84.4279 North  Level Estimated
Fri 01:59:00 PM 33.6367 -84.4279 North  Level Estimated
Fri 02:00:00 PM 33.6367 -84.4279 North  Level Estimated
Fri 02:01:00 PM 33.6367 -84.4279 North  Level Estimated
Fri 02:02:00 PM 33.6367 -84.4279 North  Level Estimated
Fri 02:02:22 PM 41.4906 -93.5769 North 192 221 3,400  Level Minneapolis Center
Fri 02:03:35 PM 41.4156 -93.5039 144° Southeast 281 323 6,800 2,844 Climbing Minneapolis Center
Fri 02:04:00 PM 41.3777 -93.4497 North  Level Estimated
Fri 02:04:37 PM 41.3456 -93.4658 158° South 273 314 9,800  Level Minneapolis Center
Fri 02:05:00 PM 41.2994 -93.3434 North  Level Estimated
Fri 02:05:39 PM 41.2694 -93.4281 160° South 297 342 10,600  Level Minneapolis Center
Fri 02:06:00 PM 41.2211 -93.2374 North  Level Estimated
Fri 02:06:41 PM 41.1739 -93.3153 138° Southeast 362 417 13,300  Level Minneapolis Center
Fri 02:07:00 PM 41.1426 -93.1316 North  Level Estimated
Fri 02:07:44 PM 41.0972 -93.2139 135° Southeast 387 445 16,600  Level Minneapolis Center
Fri 02:08:46 PM 41.0217 -93.1169 136° Southeast 384 442 19,000 2,167 Climbing Minneapolis Center
Fri 02:09:32 PM 40.9614 -93.0375 135° Southeast 382 440 20,500 1,667 Climbing Chicago Center
Fri 02:10:34 PM 40.8897 -92.9281 131° Southeast 388 447 22,000 1,258 Climbing Chicago Center
Fri 02:11:36 PM 40.8128 -92.8164 132° Southeast 404 465 23,100 1,297 Climbing Chicago Center
Fri 02:13:39 PM 40.6328 -92.6242 141° Southeast 425 489 26,000 1,557 Climbing Chicago Center
Fri 02:14:41 PM 40.5292 -92.4914 136° Southeast 434 499 27,900 1,403 Climbing Chicago Center
Fri 02:15:43 PM 40.4392 -92.3797 137° Southeast 438 504 28,900 1,171 Climbing Chicago Center
Fri 02:16:44 PM 40.3469 -92.2653 137° Southeast 447 514 30,300 1,333 Climbing Chicago Center
Fri 02:17:49 PM 40.2564 -92.1558 137° Southeast 444 511 31,700 1,039 Climbing Kansas City Center
Fri 02:18:51 PM 40.1669 -92.0467 137° Southeast 442 509 32,500 629 Climbing Kansas City Center
Fri 02:19:53 PM 40.0797 -91.9389 137° Southeast 437 503 33,000 240 Climbing Kansas City Center
Fri 02:20:56 PM 39.9775 -91.8136 137° Southeast 426 490 33,000  Level Kansas City Center
Fri 02:21:58 PM 39.8897 -91.7072 137° Southeast 431 496 33,000  Level Kansas City Center
Fri 02:23:00 PM 39.8039 -91.6008 136° Southeast 430 495 33,000  Level Kansas City Center
Fri 02:24:02 PM 39.7169 -91.4967 137° Southeast 429 494 33,000  Level Kansas City Center
Fri 02:25:04 PM 39.6325 -91.3892 136° Southeast 429 494 33,000  Level Kansas City Center
Fri 02:26:06 PM 39.5361 -91.2717 137° Southeast 429 494 33,000  Level Kansas City Center
Fri 02:27:08 PM 39.4492 -91.1667 137° Southeast 428 493 33,000  Level Kansas City Center
Fri 02:28:10 PM 39.3611 -91.0617 137° Southeast 430 495 33,000  Level Kansas City Center
Fri 02:29:12 PM 39.2539 -90.9369 138° Southeast 432 497 33,000  Level Kansas City Center
Fri 02:30:14 PM 39.1653 -90.8317 137° Southeast 433 498 33,000  Level Kansas City Center
Fri 02:31:16 PM 39.0761 -90.7275 138° Southeast 432 497 33,000  Level Kansas City Center
Fri 02:32:18 PM 38.9875 -90.6261 138° Southeast 429 494 33,000  Level Kansas City Center
Fri 02:33:20 PM 38.8906 -90.5117 137° Southeast 432 497 33,000  Level Kansas City Center
Fri 02:34:22 PM 38.8072 -90.3975 133° Southeast 439 505 33,000  Level Kansas City Center
Fri 02:35:24 PM 38.7217 -90.2789 133° Southeast 456 525 33,000  Level Kansas City Center
Fri 02:36:26 PM 38.6456 -90.1581 129° Southeast 455 524 33,000  Level Kansas City Center
Fri 02:37:28 PM 38.5489 -90.0181 131° Southeast 442 509 33,000  Level Kansas City Center
Fri 02:38:31 PM 38.4672 -89.8997 131° Southeast 443 510 33,000  Level Kansas City Center
Fri 02:39:33 PM 38.3864 -89.7797 131° Southeast 445 512 33,000  Level Kansas City Center
Fri 02:40:35 PM 38.2978 -89.6494 131° Southeast 449 517 33,000  Level Kansas City Center
Fri 02:41:37 PM 38.2156 -89.5306 131° Southeast 448 516 33,000  Level Kansas City Center
Fri 02:42:39 PM 38.1261 -89.4033 132° Southeast 448 516 33,000  Level Kansas City Center
Fri 02:43:41 PM 38.0422 -89.2844 132° Southeast 451 519 33,000  Level Kansas City Center
Fri 02:45:00 PM 37.9422 -89.1459 132° Southeast  Level FlightAware Approximate
Fri 02:45:45 PM 37.8717 -89.0433 132° Southeast 453 521 33,000  Level Kansas City Center
Fri 02:46:47 PM 37.7814 -88.9172 132° Southeast 453 521 33,000  Level Kansas City Center
Fri 02:47:49 PM 37.6964 -88.7958 131° Southeast 457 526 33,000  Level Kansas City Center
Fri 02:48:51 PM 37.6031 -88.6686 133° Southeast 450 518 33,000  Level Kansas City Center
Fri 02:49:53 PM 37.5194 -88.5508 132° Southeast 449 517 33,000  Level Kansas City Center
Fri 02:50:55 PM 37.4408 -88.4442 133° Southeast 454 522 33,000  Level Kansas City Center
Fri 02:51:57 PM 37.3350 -88.2978 132° Southeast 463 533 33,000  Level Kansas City Center
Fri 02:52:59 PM 37.2458 -88.1742 132° Southeast 470 541 33,000  Level Kansas City Center
Fri 02:54:01 PM 37.1564 -88.0511 132° Southeast 474 545 33,000  Level Kansas City Center
Fri 02:55:07 PM 37.0664 -87.9289 133° Southeast 470 541 33,000  Level Memphis Center
Fri 02:56:07 PM 36.9700 -87.7967 132° Southeast 464 534 33,000  Level Memphis Center
Fri 02:57:07 PM 36.8700 -87.6961 141° Southeast 459 528 33,000  Level Memphis Center
Fri 02:58:07 PM 36.7439 -87.6461 162° South 464 534 33,000  Level Memphis Center
Fri 02:59:07 PM 36.6217 -87.5828 157° South 469 540 33,000  Level Memphis Center
Fri 03:00:07 PM 36.5214 -87.4908 144° Southeast 458 527 33,000  Level Memphis Center
Fri 03:01:07 PM 36.4375 -87.3750 132° Southeast 452 520 33,000  Level Memphis Center
Fri 03:02:07 PM 36.3408 -87.2653 138° Southeast 452 520 33,000  Level Memphis Center
Fri 03:03:07 PM 36.2467 -87.1581 137° Southeast 458 527 33,000  Level Memphis Center
Fri 03:04:07 PM 36.1519 -87.0489 137° Southeast 458 527 33,000  Level Memphis Center
Fri 03:05:07 PM 36.0572 -86.9397 137° Southeast 458 527 33,000  Level Memphis Center
Fri 03:06:07 PM 35.9625 -86.8308 137° Southeast 458 527 33,000 -234 Level Memphis Center
Fri 03:08:32 PM 35.7439 -86.5947 139° Southeast 453 521 32,200 -527 Descending Atlanta Center
Fri 03:09:32 PM 35.6372 -86.5072 146° Southeast 453 521 31,200 -1,050 Descending Atlanta Center
Fri 03:10:32 PM 35.5203 -86.4117 146° Southeast 453 521 30,100 -1,100 Descending Atlanta Center
Fri 03:11:32 PM 35.4092 -86.3269 148° Southeast 469 540 29,000 -550 Descending Atlanta Center
Fri 03:12:32 PM 35.2872 -86.2625 157° South 469 540 29,000  Level Atlanta Center
Fri 03:13:32 PM 35.1922 -86.2067 154° Southeast 476 548 29,000  Level Atlanta Center
Fri 03:14:32 PM 35.0792 -86.1047 144° Southeast 471 542 29,000  Level Atlanta Center
Fri 03:15:32 PM 34.9869 -85.9986 137° Southeast 463 533 29,000 -450 Level Atlanta Center
Fri 03:16:32 PM 34.8928 -85.8900 137° Southeast 463 533 28,100 -1,450 Descending Atlanta Center
Fri 03:17:32 PM 34.7942 -85.7839 139° Southeast 463 533 26,100 -2,000 Descending Atlanta Center
Fri 03:18:32 PM 34.6953 -85.6783 139° Southeast 468 539 24,100 -1,800 Descending Atlanta Center
Fri 03:19:32 PM 34.5986 -85.5731 138° Southeast 468 539 22,500 -1,750 Descending Atlanta Center
Fri 03:20:32 PM 34.5122 -85.4808 139° Southeast 468 539 20,600 -2,300 Descending Atlanta Center
Fri 03:21:32 PM 34.4153 -85.3758 138° Southeast 453 521 17,900 -2,800 Descending Atlanta Center
Fri 03:22:32 PM 34.3139 -85.2861 144° Southeast 420 483 15,000 -2,450 Descending Atlanta Center
Fri 03:23:32 PM 34.2206 -85.2169 148° Southeast 401 461 13,000 -1,000 Descending Atlanta Center
Fri 03:24:32 PM 34.1506 -85.1231 132° Southeast 384 442 13,000  Level Atlanta Center
Fri 03:25:32 PM 34.0950 -85.0372 128° Southeast 347 399 13,000 -400 Level Atlanta Center
Fri 03:26:32 PM 34.0392 -84.9614 132° Southeast 318 366 12,200 -1,200 Descending Atlanta Center
Fri 03:27:32 PM 33.9600 -84.9428 169° South 283 326 10,600 -1,550 Descending Atlanta Center
Fri 03:28:32 PM 33.8767 -84.9419 180° South 278 320 9,100 -800 Descending Atlanta Center
Fri 03:29:32 PM 33.7953 -84.9336 175° South 291 335 9,000 -600 Descending Atlanta Center
Fri 03:30:32 PM 33.7158 -84.9278 177° South 291 335 7,900 -1,000 Descending Atlanta Center
Fri 03:31:32 PM 33.6556 -84.8872 151° Southeast 276 318 7,000 -796 Descending Atlanta Center
Fri 03:32:10 PM 33.6333 -84.8167 111° Southeast 277 319 6,600 -857 Descending Atlanta TRACON
Fri 03:33:10 PM 33.6333 -84.7333 90° East 267 307 5,600 -1,150 Descending Atlanta TRACON
Fri 03:34:10 PM 33.6333 -84.6500 90° East 245 282 4,300 -1,250 Descending Atlanta TRACON
Fri 03:35:10 PM 33.6333 -84.5833 90° East 218 251 3,100 -1,100 Descending Atlanta TRACON
Fri 03:36:10 PM 33.6333 -84.5167 90° East 181 208 2,100 -850 Descending Atlanta TRACON
Fri 03:37:10 PM 33.6333 -84.4667 90° East 142 163 1,400 -700 Descending Atlanta TRACON
Fri 03:39:00 PM 33.6367 -84.4279 North  Level Estimated
Fri 03:46:00 PM 33.6367 -84.4279 North  Level Estimated

Login

Don't have an account? Register now (free) for customized features, flight alerts, and more!